Columbus, IN (47201)

6:42 PM EST on February 11, 2016 (GMT -0500)
Jackson St. | | Change Station
CLOSE
Current Station
Personal Weather Station
Location: Columbus, IN
Elevation: 627 ft
Nearby Weather Stations

Elev 627 ft 39.21 °N, 85.92 °W | Updated 13 seconds ago

Clear
Clear
21.9 °F
Feels Like 22 °F
N
3.0
Wind Variable Wind from East
Gusts 4.0 mph

Today
High -- | Low -- °F
--% Chance of Precip.
Yesterday
High -- | Low -- °F
Precip. -- in
Pressure 30.32 in
Visibility 10.0 miles
Clouds Clear
Windchill 22 °F
Dew Point 7 °F
Humidity 52%
Rainfall 0.00 in
Snow Depth Not available.
7:40 AM 6:15 PM
Waxing Crescent, 15% visible
METAR KBAK 112250Z 10004KT 10SM SKC M06/M13 A3032
Pressure 30.32 in
Visibility 10.0 miles
Clouds Clear
Windchill 22 °F
Dew Point 7 °F
Humidity 52%
Rainfall 0.00 in
Snow Depth Not available.
7:40 AM 6:15 PM
Waxing Crescent, 15% visible
METAR KBAK 112250Z 10004KT 10SM SKC M06/M13 A3032

10-Day Weather Forecast

Almanac

Astronomy

Feb. 11, 2016 Rise Set
Actual Time
Civil Twilight
Nautical Twilight
Astronomical Twilight
Moon
Length of Visible Light
Length of Day
Tomorrow will be .
, % of the Moon is Illuminated

Today's Extremes

State Highs State Lows

Community

WunderPhotos

Upload Photos

1,892,180 photos uploaded!

WunderBlog® & News

Nearby

Air Quality

  Air Quality AQ Index Pollutant
Not available.

Snow Depth

Station Depth Elevation

Earthquake Activity

City Distance Mag. Time & Date
Minimum magnitude displayed is 2.5.

Coastal Water Temperatures

Place Temperature

Stations

Nearby Weather Stations

Station Location Temp. Windchill Dew Point Humidity Wind Precip. Elev Updated Type
                   

Watches & Warnings

There are currently no watches in effect.